sensor_id;sensor_type;location;lat;lon;timestamp;temperature;humidity
17348;DHT22;8791;50.876;4.342;2023-04-24T00:01:03;10.00;99.90
17348;DHT22;8791;50.876;4.342;2023-04-24T00:03:34;10.00;99.90
17348;DHT22;8791;50.876;4.342;2023-04-24T00:06:01;10.10;99.90
17348;DHT22;8791;50.876;4.342;2023-04-24T00:08:28;10.20;99.90
17348;DHT22;8791;50.876;4.342;2023-04-24T00:10:55;10.30;99.90
17348;DHT22;8791;50.876;4.342;2023-04-24T00:13:22;10.10;99.90
17348;DHT22;8791;50.876;4.342;2023-04-24T00:15:49;9.80;99.90
17348;DHT22;8791;50.876;4.342;2023-04-24T00:18:16;9.70;99.90
17348;DHT22;8791;50.876;4.342;2023-04-24T00:20:44;9.70;99.90
17348;DHT22;8791;50.876;4.342;2023-04-24T00:23:12;9.80;99.90
17348;DHT22;8791;50.876;4.342;2023-04-24T00:25:39;9.90;99.90
17348;DHT22;8791;50.876;4.342;2023-04-24T00:28:06;10.00;99.90
17348;DHT22;8791;50.876;4.342;2023-04-24T00:30:33;9.90;99.90
17348;DHT22;8791;50.876;4.342;2023-04-24T00:33:00;9.80;99.90
17348;DHT22;8791;50.876;4.342;2023-04-24T00:35:27;9.80;99.90
17348;DHT22;8791;50.876;4.342;2023-04-24T00:37:55;9.80;99.90
17348;DHT22;8791;50.876;4.342;2023-04-24T00:40:22;9.80;99.90
17348;DHT22;8791;50.876;4.342;2023-04-24T00:42:49;9.70;99.90
17348;DHT22;8791;50.876;4.342;2023-04-24T00:45:16;9.60;99.90
17348;DHT22;8791;50.876;4.342;2023-04-24T00:47:43;9.70;99.90
17348;DHT22;8791;50.876;4.342;2023-04-24T00:50:11;9.70;99.90
17348;DHT22;8791;50.876;4.342;2023-04-24T00:52:40;9.60;99.90
17348;DHT22;8791;50.876;4.342;2023-04-24T00:55:09;9.60;99.90
17348;DHT22;8791;50.876;4.342;2023-04-24T00:57:36;9.60;99.90
17348;DHT22;8791;50.876;4.342;2023-04-24T01:00:05;9.60;99.90
17348;DHT22;8791;50.876;4.342;2023-04-24T01:02:37;9.50;99.90
17348;DHT22;8791;50.876;4.342;2023-04-24T01:05:06;9.50;99.90
17348;DHT22;8791;50.876;4.342;2023-04-24T01:07:34;9.50;99.90
17348;DHT22;8791;50.876;4.342;2023-04-24T01:10:01;9.50;99.90
17348;DHT22;8791;50.876;4.342;2023-04-24T01:12:30;9.50;99.90
17348;DHT22;8791;50.876;4.342;2023-04-24T01:14:57;9.60;99.90
17348;DHT22;8791;50.876;4.342;2023-04-24T01:17:24;9.50;99.90
17348;DHT22;8791;50.876;4.342;2023-04-24T01:19:51;9.50;99.90
17348;DHT22;8791;50.876;4.342;2023-04-24T01:22:20;9.40;99.90
17348;DHT22;8791;50.876;4.342;2023-04-24T01:24:47;9.50;99.90
17348;DHT22;8791;50.876;4.342;2023-04-24T01:27:15;9.50;99.90
17348;DHT22;8791;50.876;4.342;2023-04-24T01:29:42;9.60;99.90
17348;DHT22;8791;50.876;4.342;2023-04-24T01:32:09;9.60;99.90
17348;DHT22;8791;50.876;4.342;2023-04-24T01:34:36;9.60;99.90
17348;DHT22;8791;50.876;4.342;2023-04-24T01:37:03;9.40;99.90
17348;DHT22;8791;50.876;4.342;2023-04-24T01:39:32;9.20;99.90
17348;DHT22;8791;50.876;4.342;2023-04-24T01:41:59;9.20;99.90
17348;DHT22;8791;50.876;4.342;2023-04-24T01:44:28;9.30;99.90
17348;DHT22;8791;50.876;4.342;2023-04-24T01:46:55;9.50;99.90
17348;DHT22;8791;50.876;4.342;2023-04-24T01:49:22;9.50;99.90
17348;DHT22;8791;50.876;4.342;2023-04-24T01:51:49;9.70;99.90
17348;DHT22;8791;50.876;4.342;2023-04-24T01:54:16;9.80;99.90
17348;DHT22;8791;50.876;4.342;2023-04-24T01:56:45;9.70;99.90
17348;DHT22;8791;50.876;4.342;2023-04-24T01:59:12;9.80;99.90
17348;DHT22;8791;50.876;4.342;2023-04-24T02:01:39;9.90;99.90
17348;DHT22;8791;50.876;4.342;2023-04-24T02:04:07;9.80;99.90
17348;DHT22;8791;50.876;4.342;2023-04-24T02:06:34;9.80;99.90
17348;DHT22;8791;50.876;4.342;2023-04-24T02:09:01;9.60;99.90
17348;DHT22;8791;50.876;4.342;2023-04-24T02:11:28;9.60;99.90
17348;DHT22;8791;50.876;4.342;2023-04-24T02:13:56;9.70;99.90
17348;DHT22;8791;50.876;4.342;2023-04-24T02:16:23;9.70;99.90
17348;DHT22;8791;50.876;4.342;2023-04-24T02:18:50;9.80;99.90
17348;DHT22;8791;50.876;4.342;2023-04-24T02:21:17;9.50;99.90
17348;DHT22;8791;50.876;4.342;2023-04-24T02:23:44;9.50;99.90
17348;DHT22;8791;50.876;4.342;2023-04-24T02:26:11;9.40;99.90
17348;DHT22;8791;50.876;4.342;2023-04-24T02:28:38;9.50;99.90
17348;DHT22;8791;50.876;4.342;2023-04-24T02:31:06;9.50;99.90
17348;DHT22;8791;50.876;4.342;2023-04-24T02:33:33;9.60;99.90
17348;DHT22;8791;50.876;4.342;2023-04-24T02:36:01;9.70;99.90
17348;DHT22;8791;50.876;4.342;2023-04-24T02:38:28;9.90;99.90
17348;DHT22;8791;50.876;4.342;2023-04-24T02:40:55;9.80;99.90
17348;DHT22;8791;50.876;4.342;2023-04-24T02:43:22;9.80;99.90
17348;DHT22;8791;50.876;4.342;2023-04-24T02:45:49;9.70;99.90
17348;DHT22;8791;50.876;4.342;2023-04-24T02:48:17;9.70;99.90
17348;DHT22;8791;50.876;4.342;2023-04-24T02:50:46;9.60;99.90
17348;DHT22;8791;50.876;4.342;2023-04-24T02:53:13;9.50;99.90
17348;DHT22;8791;50.876;4.342;2023-04-24T02:55:40;9.40;99.90
17348;DHT22;8791;50.876;4.342;2023-04-24T02:58:07;9.50;99.90
17348;DHT22;8791;50.876;4.342;2023-04-24T03:00:34;9.30;99.90
17348;DHT22;8791;50.876;4.342;2023-04-24T03:03:01;9.20;99.90
17348;DHT22;8791;50.876;4.342;2023-04-24T03:05:29;9.30;99.90
17348;DHT22;8791;50.876;4.342;2023-04-24T03:07:57;9.10;99.90
17348;DHT22;8791;50.876;4.342;2023-04-24T03:10:24;9.10;99.90
17348;DHT22;8791;50.876;4.342;2023-04-24T03:12:51;9.30;99.90
17348;DHT22;8791;50.876;4.342;2023-04-24T03:15:18;9.40;99.90
17348;DHT22;8791;50.876;4.342;2023-04-24T03:17:45;9.50;99.90
17348;DHT22;8791;50.876;4.342;2023-04-24T03:20:12;9.50;99.90
17348;DHT22;8791;50.876;4.342;2023-04-24T03:22:41;9.40;99.90
17348;DHT22;8791;50.876;4.342;2023-04-24T03:25:09;9.40;99.90
17348;DHT22;8791;50.876;4.342;2023-04-24T03:27:35;9.30;99.90
17348;DHT22;8791;50.876;4.342;2023-04-24T03:30:03;9.50;99.90
17348;DHT22;8791;50.876;4.342;2023-04-24T03:32:30;9.40;99.90
17348;DHT22;8791;50.876;4.342;2023-04-24T03:34:57;9.40;99.90
17348;DHT22;8791;50.876;4.342;2023-04-24T03:37:24;9.50;99.90
17348;DHT22;8791;50.876;4.342;2023-04-24T03:39:53;9.60;99.90
17348;DHT22;8791;50.876;4.342;2023-04-24T03:42:20;9.70;99.90
17348;DHT22;8791;50.876;4.342;2023-04-24T03:44:47;9.70;99.90
17348;DHT22;8791;50.876;4.342;2023-04-24T03:47:14;9.70;99.90
17348;DHT22;8791;50.876;4.342;2023-04-24T03:49:41;9.70;99.90
17348;DHT22;8791;50.876;4.342;2023-04-24T03:52:07;9.80;99.90
17348;DHT22;8791;50.876;4.342;2023-04-24T03:54:34;9.90;99.90
17348;DHT22;8791;50.876;4.342;2023-04-24T03:57:03;9.80;99.90
17348;DHT22;8791;50.876;4.342;2023-04-24T03:59:30;9.80;99.90
17348;DHT22;8791;50.876;4.342;2023-04-24T04:01:57;9.80;99.90
17348;DHT22;8791;50.876;4.342;2023-04-24T04:04:24;9.90;99.90
17348;DHT22;8791;50.876;4.342;2023-04-24T04:06:51;9.90;99.90
17348;DHT22;8791;50.876;4.342;2023-04-24T04:09:18;9.90;99.90
17348;DHT22;8791;50.876;4.342;2023-04-24T04:11:45;9.80;99.90
17348;DHT22;8791;50.876;4.342;2023-04-24T04:14:14;9.90;99.90
17348;DHT22;8791;50.876;4.342;2023-04-24T04:16:40;10.00;99.90
17348;DHT22;8791;50.876;4.342;2023-04-24T04:19:07;10.10;99.90
17348;DHT22;8791;50.876;4.342;2023-04-24T04:21:34;10.00;99.90
17348;DHT22;8791;50.876;4.342;2023-04-24T04:24:01;9.80;99.90
17348;DHT22;8791;50.876;4.342;2023-04-24T04:26:28;10.00;99.90
17348;DHT22;8791;50.876;4.342;2023-04-24T04:28:58;9.90;99.90
17348;DHT22;8791;50.876;4.342;2023-04-24T04:31:27;10.00;99.90
17348;DHT22;8791;50.876;4.342;2023-04-24T04:33:54;10.10;99.90
17348;DHT22;8791;50.876;4.342;2023-04-24T04:36:21;10.00;99.90
17348;DHT22;8791;50.876;4.342;2023-04-24T04:38:49;10.10;99.90
17348;DHT22;8791;50.876;4.342;2023-04-24T04:41:16;9.90;99.90
17348;DHT22;8791;50.876;4.342;2023-04-24T04:43:43;9.90;99.90
17348;DHT22;8791;50.876;4.342;2023-04-24T04:46:12;9.80;99.90
17348;DHT22;8791;50.876;4.342;2023-04-24T04:48:40;9.80;99.90
17348;DHT22;8791;50.876;4.342;2023-04-24T04:51:07;9.80;99.90
17348;DHT22;8791;50.876;4.342;2023-04-24T04:53:34;9.80;99.90
17348;DHT22;8791;50.876;4.342;2023-04-24T04:56:01;9.80;99.90
17348;DHT22;8791;50.876;4.342;2023-04-24T04:58:28;9.70;99.90
17348;DHT22;8791;50.876;4.342;2023-04-24T05:00:56;9.70;99.90
17348;DHT22;8791;50.876;4.342;2023-04-24T05:03:23;9.70;99.90
17348;DHT22;8791;50.876;4.342;2023-04-24T05:05:52;9.80;99.90
17348;DHT22;8791;50.876;4.342;2023-04-24T05:08:19;9.60;99.90
17348;DHT22;8791;50.876;4.342;2023-04-24T05:10:46;9.60;99.90
17348;DHT22;8791;50.876;4.342;2023-04-24T05:13:13;9.60;99.90
17348;DHT22;8791;50.876;4.342;2023-04-24T05:15:40;9.70;99.90
17348;DHT22;8791;50.876;4.342;2023-04-24T05:18:08;9.60;99.90
17348;DHT22;8791;50.876;4.342;2023-04-24T05:20:35;9.60;99.90
17348;DHT22;8791;50.876;4.342;2023-04-24T05:23:03;9.70;99.90
17348;DHT22;8791;50.876;4.342;2023-04-24T05:25:31;9.60;99.90
17348;DHT22;8791;50.876;4.342;2023-04-24T05:28:01;9.60;99.90
17348;DHT22;8791;50.876;4.342;2023-04-24T05:30:28;9.60;99.90
17348;DHT22;8791;50.876;4.342;2023-04-24T05:32:55;9.50;99.90
17348;DHT22;8791;50.876;4.342;2023-04-24T05:35:22;9.60;99.90
17348;DHT22;8791;50.876;4.342;2023-04-24T05:37:49;9.60;99.90
17348;DHT22;8791;50.876;4.342;2023-04-24T05:40:17;9.60;99.90
17348;DHT22;8791;50.876;4.342;2023-04-24T05:42:44;9.70;99.90
17348;DHT22;8791;50.876;4.342;2023-04-24T05:45:11;9.60;99.90
17348;DHT22;8791;50.876;4.342;2023-04-24T05:47:42;9.50;99.90
17348;DHT22;8791;50.876;4.342;2023-04-24T05:50:09;9.50;99.90
17348;DHT22;8791;50.876;4.342;2023-04-24T05:52:36;9.40;99.90
17348;DHT22;8791;50.876;4.342;2023-04-24T05:55:04;9.40;99.90
17348;DHT22;8791;50.876;4.342;2023-04-24T05:57:33;9.50;99.90
17348;DHT22;8791;50.876;4.342;2023-04-24T06:00:00;9.40;99.90
17348;DHT22;8791;50.876;4.342;2023-04-24T06:02:27;9.30;99.90
17348;DHT22;8791;50.876;4.342;2023-04-24T06:04:57;9.30;99.90
17348;DHT22;8791;50.876;4.342;2023-04-24T06:07:24;9.40;99.90
17348;DHT22;8791;50.876;4.342;2023-04-24T06:09:52;9.40;99.90
17348;DHT22;8791;50.876;4.342;2023-04-24T06:12:19;9.40;99.90
17348;DHT22;8791;50.876;4.342;2023-04-24T06:14:48;9.30;99.90
17348;DHT22;8791;50.876;4.342;2023-04-24T06:17:16;9.30;99.90
17348;DHT22;8791;50.876;4.342;2023-04-24T06:19:43;9.40;99.90
17348;DHT22;8791;50.876;4.342;2023-04-24T06:22:10;9.40;99.90
17348;DHT22;8791;50.876;4.342;2023-04-24T06:24:37;9.40;99.90
17348;DHT22;8791;50.876;4.342;2023-04-24T06:27:04;9.50;99.90
17348;DHT22;8791;50.876;4.342;2023-04-24T06:29:31;9.40;99.90
17348;DHT22;8791;50.876;4.342;2023-04-24T06:31:59;9.40;99.90
17348;DHT22;8791;50.876;4.342;2023-04-24T06:34:29;9.50;99.90
17348;DHT22;8791;50.876;4.342;2023-04-24T06:36:56;9.40;99.90
17348;DHT22;8791;50.876;4.342;2023-04-24T06:39:23;9.30;99.90
17348;DHT22;8791;50.876;4.342;2023-04-24T06:41:50;9.40;99.90
17348;DHT22;8791;50.876;4.342;2023-04-24T06:44:17;9.40;99.90
17348;DHT22;8791;50.876;4.342;2023-04-24T06:46:44;9.50;99.90
17348;DHT22;8791;50.876;4.342;2023-04-24T06:49:13;9.50;99.90
17348;DHT22;8791;50.876;4.342;2023-04-24T06:51:41;9.60;99.90
17348;DHT22;8791;50.876;4.342;2023-04-24T06:54:08;9.70;99.90
17348;DHT22;8791;50.876;4.342;2023-04-24T06:56:35;9.70;99.90
17348;DHT22;8791;50.876;4.342;2023-04-24T06:59:03;9.70;99.90
17348;DHT22;8791;50.876;4.342;2023-04-24T07:01:30;9.70;99.90
17348;DHT22;8791;50.876;4.342;2023-04-24T07:03:57;9.70;99.90
17348;DHT22;8791;50.876;4.342;2023-04-24T07:06:26;9.80;99.90
17348;DHT22;8791;50.876;4.342;2023-04-24T07:08:54;9.70;99.90
17348;DHT22;8791;50.876;4.342;2023-04-24T07:11:21;9.60;99.90
17348;DHT22;8791;50.876;4.342;2023-04-24T07:13:48;9.70;99.90
17348;DHT22;8791;50.876;4.342;2023-04-24T07:16:16;9.80;99.90
17348;DHT22;8791;50.876;4.342;2023-04-24T07:18:43;9.70;99.90
17348;DHT22;8791;50.876;4.342;2023-04-24T07:21:10;9.90;99.90
17348;DHT22;8791;50.876;4.342;2023-04-24T07:23:38;10.00;99.90
17348;DHT22;8791;50.876;4.342;2023-04-24T07:26:06;10.10;99.90
17348;DHT22;8791;50.876;4.342;2023-04-24T07:28:33;10.10;99.90
17348;DHT22;8791;50.876;4.342;2023-04-24T07:31:00;10.20;99.90
17348;DHT22;8791;50.876;4.342;2023-04-24T07:33:27;10.40;99.90
17348;DHT22;8791;50.876;4.342;2023-04-24T07:35:54;10.40;99.90
17348;DHT22;8791;50.876;4.342;2023-04-24T07:38:22;10.30;99.90
17348;DHT22;8791;50.876;4.342;2023-04-24T07:40:52;10.30;99.90
17348;DHT22;8791;50.876;4.342;2023-04-24T07:43:20;10.30;99.90
17348;DHT22;8791;50.876;4.342;2023-04-24T07:45:47;10.40;99.90
17348;DHT22;8791;50.876;4.342;2023-04-24T07:48:13;10.40;99.90
17348;DHT22;8791;50.876;4.342;2023-04-24T07:50:41;10.20;99.90
17348;DHT22;8791;50.876;4.342;2023-04-24T07:53:08;10.30;99.90
17348;DHT22;8791;50.876;4.342;2023-04-24T07:55:35;10.40;99.90
17348;DHT22;8791;50.876;4.342;2023-04-24T07:58:04;10.40;99.90
17348;DHT22;8791;50.876;4.342;2023-04-24T08:00:31;10.50;99.90
17348;DHT22;8791;50.876;4.342;2023-04-24T08:02:58;10.70;99.90
17348;DHT22;8791;50.876;4.342;2023-04-24T08:05:25;10.80;99.90
17348;DHT22;8791;50.876;4.342;2023-04-24T08:07:53;10.80;99.90
17348;DHT22;8791;50.876;4.342;2023-04-24T08:10:21;10.70;99.90
17348;DHT22;8791;50.876;4.342;2023-04-24T08:12:47;10.70;99.90
17348;DHT22;8791;50.876;4.342;2023-04-24T08:15:16;10.70;99.90
17348;DHT22;8791;50.876;4.342;2023-04-24T08:17:43;10.80;99.90
17348;DHT22;8791;50.876;4.342;2023-04-24T08:20:11;10.90;99.90
17348;DHT22;8791;50.876;4.342;2023-04-24T08:22:39;10.80;99.90
17348;DHT22;8791;50.876;4.342;2023-04-24T08:25:06;10.90;99.90
17348;DHT22;8791;50.876;4.342;2023-04-24T08:27:33;10.90;99.90
17348;DHT22;8791;50.876;4.342;2023-04-24T08:30:02;11.00;99.90
17348;DHT22;8791;50.876;4.342;2023-04-24T08:32:31;10.90;99.90
17348;DHT22;8791;50.876;4.342;2023-04-24T08:34:58;11.00;99.90
17348;DHT22;8791;50.876;4.342;2023-04-24T08:37:26;11.10;99.90
17348;DHT22;8791;50.876;4.342;2023-04-24T08:39:53;11.10;99.90
17348;DHT22;8791;50.876;4.342;2023-04-24T08:42:20;11.10;99.90
17348;DHT22;8791;50.876;4.342;2023-04-24T08:44:49;11.00;99.90
17348;DHT22;8791;50.876;4.342;2023-04-24T08:47:16;11.10;99.90
17348;DHT22;8791;50.876;4.342;2023-04-24T08:49:44;11.20;99.90
17348;DHT22;8791;50.876;4.342;2023-04-24T08:52:15;11.30;99.90
17348;DHT22;8791;50.876;4.342;2023-04-24T08:54:43;11.50;99.90
17348;DHT22;8791;50.876;4.342;2023-04-24T08:57:11;11.50;99.90
17348;DHT22;8791;50.876;4.342;2023-04-24T08:59:39;11.70;99.90
17348;DHT22;8791;50.876;4.342;2023-04-24T09:02:10;11.80;99.90
17348;DHT22;8791;50.876;4.342;2023-04-24T09:04:37;11.90;99.90
17348;DHT22;8791;50.876;4.342;2023-04-24T09:07:06;11.80;99.90
17348;DHT22;8791;50.876;4.342;2023-04-24T09:09:34;11.80;99.90
17348;DHT22;8791;50.876;4.342;2023-04-24T09:12:02;12.00;99.90
17348;DHT22;8791;50.876;4.342;2023-04-24T09:14:30;12.10;99.90
17348;DHT22;8791;50.876;4.342;2023-04-24T09:16:57;12.10;99.90
17348;DHT22;8791;50.876;4.342;2023-04-24T09:19:24;12.20;99.90
17348;DHT22;8791;50.876;4.342;2023-04-24T09:21:52;12.30;99.90
17348;DHT22;8791;50.876;4.342;2023-04-24T09:24:21;12.40;99.90
17348;DHT22;8791;50.876;4.342;2023-04-24T09:26:55;12.40;99.90
17348;DHT22;8791;50.876;4.342;2023-04-24T09:29:23;12.40;99.90
17348;DHT22;8791;50.876;4.342;2023-04-24T09:31:50;12.40;99.90
17348;DHT22;8791;50.876;4.342;2023-04-24T09:34:21;12.30;99.90
17348;DHT22;8791;50.876;4.342;2023-04-24T09:36:48;12.30;99.90
17348;DHT22;8791;50.876;4.342;2023-04-24T09:39:16;12.10;99.90
17348;DHT22;8791;50.876;4.342;2023-04-24T09:41:47;12.00;99.90
17348;DHT22;8791;50.876;4.342;2023-04-24T09:44:16;12.00;99.90
17348;DHT22;8791;50.876;4.342;2023-04-24T09:46:44;12.10;99.90
17348;DHT22;8791;50.876;4.342;2023-04-24T09:49:13;12.20;99.90
17348;DHT22;8791;50.876;4.342;2023-04-24T09:51:43;12.30;99.90
17348;DHT22;8791;50.876;4.342;2023-04-24T09:54:17;12.50;99.90
17348;DHT22;8791;50.876;4.342;2023-04-24T09:56:48;12.70;99.90
17348;DHT22;8791;50.876;4.342;2023-04-24T09:59:16;12.90;99.90
17348;DHT22;8791;50.876;4.342;2023-04-24T10:01:44;13.00;99.90
17348;DHT22;8791;50.876;4.342;2023-04-24T10:04:18;13.00;99.90
17348;DHT22;8791;50.876;4.342;2023-04-24T10:06:46;12.80;99.90
17348;DHT22;8791;50.876;4.342;2023-04-24T10:09:15;12.90;99.90
17348;DHT22;8791;50.876;4.342;2023-04-24T10:11:43;12.80;99.90
17348;DHT22;8791;50.876;4.342;2023-04-24T10:14:12;12.90;99.90
17348;DHT22;8791;50.876;4.342;2023-04-24T10:16:40;13.10;99.90
17348;DHT22;8791;50.876;4.342;2023-04-24T10:19:07;13.20;99.90
17348;DHT22;8791;50.876;4.342;2023-04-24T10:21:35;13.10;99.90
17348;DHT22;8791;50.876;4.342;2023-04-24T10:24:04;13.10;99.90
17348;DHT22;8791;50.876;4.342;2023-04-24T10:26:33;13.20;99.90
17348;DHT22;8791;50.876;4.342;2023-04-24T10:29:00;13.10;99.90
17348;DHT22;8791;50.876;4.342;2023-04-24T10:31:31;12.80;99.90
17348;DHT22;8791;50.876;4.342;2023-04-24T10:34:00;12.80;99.90
17348;DHT22;8791;50.876;4.342;2023-04-24T10:36:29;12.90;99.90
17348;DHT22;8791;50.876;4.342;2023-04-24T10:38:59;13.00;99.90
17348;DHT22;8791;50.876;4.342;2023-04-24T10:41:27;13.00;99.90
17348;DHT22;8791;50.876;4.342;2023-04-24T10:44:07;13.10;99.90
17348;DHT22;8791;50.876;4.342;2023-04-24T10:46:36;13.00;99.90
17348;DHT22;8791;50.876;4.342;2023-04-24T10:49:04;13.00;99.90
17348;DHT22;8791;50.876;4.342;2023-04-24T10:51:45;12.90;99.90
17348;DHT22;8791;50.876;4.342;2023-04-24T10:54:27;13.00;99.90
17348;DHT22;8791;50.876;4.342;2023-04-24T10:57:26;13.00;99.90
17348;DHT22;8791;50.876;4.342;2023-04-24T11:00:16;13.00;99.90
17348;DHT22;8791;50.876;4.342;2023-04-24T11:02:46;13.00;99.90
17348;DHT22;8791;50.876;4.342;2023-04-24T11:05:19;12.90;99.90
17348;DHT22;8791;50.876;4.342;2023-04-24T11:08:11;12.90;99.90
17348;DHT22;8791;50.876;4.342;2023-04-24T11:10:44;12.90;99.90
17348;DHT22;8791;50.876;4.342;2023-04-24T11:13:14;12.90;99.90
17348;DHT22;8791;50.876;4.342;2023-04-24T11:15:41;13.00;99.90
17348;DHT22;8791;50.876;4.342;2023-04-24T11:18:14;13.00;99.90
17348;DHT22;8791;50.876;4.342;2023-04-24T11:20:42;13.10;99.90
17348;DHT22;8791;50.876;4.342;2023-04-24T11:23:12;13.20;99.90
17348;DHT22;8791;50.876;4.342;2023-04-24T11:25:40;13.20;99.90
17348;DHT22;8791;50.876;4.342;2023-04-24T11:28:07;13.30;99.90
17348;DHT22;8791;50.876;4.342;2023-04-24T11:30:41;13.30;99.90
17348;DHT22;8791;50.876;4.342;2023-04-24T11:33:08;13.20;99.90
17348;DHT22;8791;50.876;4.342;2023-04-24T11:35:40;13.30;99.90
17348;DHT22;8791;50.876;4.342;2023-04-24T11:38:07;13.50;99.90
17348;DHT22;8791;50.876;4.342;2023-04-24T11:40:34;13.80;99.90
17348;DHT22;8791;50.876;4.342;2023-04-24T11:43:04;13.80;99.90
17348;DHT22;8791;50.876;4.342;2023-04-24T11:45:31;14.00;99.90
17348;DHT22;8791;50.876;4.342;2023-04-24T11:47:58;13.90;99.90
17348;DHT22;8791;50.876;4.342;2023-04-24T11:50:26;13.70;99.90
17348;DHT22;8791;50.876;4.342;2023-04-24T11:52:56;13.60;99.90
17348;DHT22;8791;50.876;4.342;2023-04-24T11:55:25;13.50;99.90
17348;DHT22;8791;50.876;4.342;2023-04-24T11:57:54;13.50;99.90
17348;DHT22;8791;50.876;4.342;2023-04-24T12:00:24;13.50;99.90
17348;DHT22;8791;50.876;4.342;2023-04-24T12:02:51;13.40;99.90
17348;DHT22;8791;50.876;4.342;2023-04-24T12:05:21;13.40;99.90
17348;DHT22;8791;50.876;4.342;2023-04-24T12:07:48;13.30;99.90
17348;DHT22;8791;50.876;4.342;2023-04-24T12:10:20;13.30;99.90
17348;DHT22;8791;50.876;4.342;2023-04-24T12:12:47;13.30;99.90
17348;DHT22;8791;50.876;4.342;2023-04-24T12:15:16;13.30;99.90
17348;DHT22;8791;50.876;4.342;2023-04-24T12:17:44;13.50;99.90
17348;DHT22;8791;50.876;4.342;2023-04-24T12:20:12;13.80;99.90
17348;DHT22;8791;50.876;4.342;2023-04-24T12:22:43;14.10;99.90
17348;DHT22;8791;50.876;4.342;2023-04-24T12:25:12;14.30;99.90
17348;DHT22;8791;50.876;4.342;2023-04-24T12:27:40;14.30;99.90
17348;DHT22;8791;50.876;4.342;2023-04-24T12:30:11;14.30;99.90
17348;DHT22;8791;50.876;4.342;2023-04-24T12:32:41;14.20;99.90
17348;DHT22;8791;50.876;4.342;2023-04-24T12:35:09;14.30;99.90
17348;DHT22;8791;50.876;4.342;2023-04-24T12:37:36;14.40;99.90
17348;DHT22;8791;50.876;4.342;2023-04-24T12:40:06;14.60;99.90
17348;DHT22;8791;50.876;4.342;2023-04-24T12:42:35;14.50;99.90
17348;DHT22;8791;50.876;4.342;2023-04-24T12:45:05;14.40;99.90
17348;DHT22;8791;50.876;4.342;2023-04-24T12:47:33;14.60;99.90
17348;DHT22;8791;50.876;4.342;2023-04-24T12:50:00;14.70;99.90
17348;DHT22;8791;50.876;4.342;2023-04-24T12:52:29;14.70;99.90
17348;DHT22;8791;50.876;4.342;2023-04-24T12:54:58;14.80;99.90
17348;DHT22;8791;50.876;4.342;2023-04-24T12:57:25;14.80;99.90
17348;DHT22;8791;50.876;4.342;2023-04-24T12:59:54;14.50;99.90
17348;DHT22;8791;50.876;4.342;2023-04-24T13:02:23;14.40;99.90
17348;DHT22;8791;50.876;4.342;2023-04-24T13:04:50;14.20;99.90
17348;DHT22;8791;50.876;4.342;2023-04-24T13:07:17;14.00;99.90
17348;DHT22;8791;50.876;4.342;2023-04-24T13:09:44;13.90;99.90
17348;DHT22;8791;50.876;4.342;2023-04-24T13:12:13;13.60;99.90
17348;DHT22;8791;50.876;4.342;2023-04-24T13:14:40;13.60;99.90
17348;DHT22;8791;50.876;4.342;2023-04-24T13:17:07;13.60;99.90
17348;DHT22;8791;50.876;4.342;2023-04-24T13:19:40;13.70;99.90
17348;DHT22;8791;50.876;4.342;2023-04-24T13:22:09;14.00;99.90
17348;DHT22;8791;50.876;4.342;2023-04-24T13:24:37;14.00;99.90
17348;DHT22;8791;50.876;4.342;2023-04-24T13:27:05;14.00;99.90
17348;DHT22;8791;50.876;4.342;2023-04-24T13:29:32;14.00;99.90
17348;DHT22;8791;50.876;4.342;2023-04-24T13:31:59;13.90;99.90
17348;DHT22;8791;50.876;4.342;2023-04-24T13:34:27;14.00;99.90
17348;DHT22;8791;50.876;4.342;2023-04-24T13:36:56;13.80;99.90
17348;DHT22;8791;50.876;4.342;2023-04-24T13:39:24;13.90;99.90
17348;DHT22;8791;50.876;4.342;2023-04-24T13:41:51;13.90;99.90
17348;DHT22;8791;50.876;4.342;2023-04-24T13:44:19;13.90;99.90
17348;DHT22;8791;50.876;4.342;2023-04-24T13:46:47;14.00;99.90
17348;DHT22;8791;50.876;4.342;2023-04-24T13:49:15;14.10;99.90
17348;DHT22;8791;50.876;4.342;2023-04-24T13:51:42;14.20;99.90
17348;DHT22;8791;50.876;4.342;2023-04-24T13:54:12;14.30;99.90
17348;DHT22;8791;50.876;4.342;2023-04-24T13:56:40;14.40;99.90
17348;DHT22;8791;50.876;4.342;2023-04-24T13:59:07;14.60;99.90
17348;DHT22;8791;50.876;4.342;2023-04-24T14:01:34;14.70;99.90
17348;DHT22;8791;50.876;4.342;2023-04-24T14:04:01;14.40;99.90
17348;DHT22;8791;50.876;4.342;2023-04-24T14:06:28;14.20;99.90
17348;DHT22;8791;50.876;4.342;2023-04-24T14:08:55;14.30;99.90
17348;DHT22;8791;50.876;4.342;2023-04-24T14:11:23;14.60;99.90
17348;DHT22;8791;50.876;4.342;2023-04-24T14:13:50;14.80;99.90
17348;DHT22;8791;50.876;4.342;2023-04-24T14:16:17;14.90;99.90
17348;DHT22;8791;50.876;4.342;2023-04-24T14:18:44;14.90;99.90
17348;DHT22;8791;50.876;4.342;2023-04-24T14:21:11;14.70;99.90
17348;DHT22;8791;50.876;4.342;2023-04-24T14:23:38;14.30;99.90
17348;DHT22;8791;50.876;4.342;2023-04-24T14:26:05;13.90;99.90
17348;DHT22;8791;50.876;4.342;2023-04-24T14:46:14;14.00;99.90
17348;DHT22;8791;50.876;4.342;2023-04-24T14:49:24;13.90;99.90
17348;DHT22;8791;50.876;4.342;2023-04-24T14:52:30;13.80;99.90
17348;DHT22;8791;50.876;4.342;2023-04-24T14:55:26;13.80;99.90
17348;DHT22;8791;50.876;4.342;2023-04-24T14:58:09;14.00;99.90
17348;DHT22;8791;50.876;4.342;2023-04-24T15:00:46;13.80;99.90
17348;DHT22;8791;50.876;4.342;2023-04-24T15:03:45;13.80;99.90
17348;DHT22;8791;50.876;4.342;2023-04-24T15:06:29;14.20;99.90
17348;DHT22;8791;50.876;4.342;2023-04-24T15:09:04;14.00;99.90
17348;DHT22;8791;50.876;4.342;2023-04-24T15:12:11;14.10;99.90
17348;DHT22;8791;50.876;4.342;2023-04-24T15:21:36;13.80;99.90
17348;DHT22;8791;50.876;4.342;2023-04-24T15:24:20;13.80;99.90
17348;DHT22;8791;50.876;4.342;2023-04-24T15:26:47;13.70;99.90
17348;DHT22;8791;50.876;4.342;2023-04-24T15:29:14;13.70;99.90
17348;DHT22;8791;50.876;4.342;2023-04-24T15:31:41;13.80;99.90
17348;DHT22;8791;50.876;4.342;2023-04-24T15:34:09;13.90;99.90
17348;DHT22;8791;50.876;4.342;2023-04-24T15:36:37;13.90;99.90
17348;DHT22;8791;50.876;4.342;2023-04-24T15:39:04;13.90;99.90
17348;DHT22;8791;50.876;4.342;2023-04-24T15:41:31;14.10;99.90
17348;DHT22;8791;50.876;4.342;2023-04-24T15:43:58;13.50;99.90
17348;DHT22;8791;50.876;4.342;2023-04-24T15:46:25;13.20;99.90
17348;DHT22;8791;50.876;4.342;2023-04-24T15:48:52;13.30;99.90
17348;DHT22;8791;50.876;4.342;2023-04-24T15:51:19;13.40;99.90
17348;DHT22;8791;50.876;4.342;2023-04-24T15:53:48;13.50;99.90
17348;DHT22;8791;50.876;4.342;2023-04-24T15:56:15;13.50;99.90
17348;DHT22;8791;50.876;4.342;2023-04-24T15:58:41;13.10;99.90
17348;DHT22;8791;50.876;4.342;2023-04-24T16:01:08;13.00;99.90
17348;DHT22;8791;50.876;4.342;2023-04-24T16:03:35;13.20;99.90
17348;DHT22;8791;50.876;4.342;2023-04-24T16:06:02;12.80;99.90
17348;DHT22;8791;50.876;4.342;2023-04-24T16:08:29;12.50;99.90
17348;DHT22;8791;50.876;4.342;2023-04-24T16:10:58;12.60;99.90
17348;DHT22;8791;50.876;4.342;2023-04-24T16:13:25;12.30;99.90
17348;DHT22;8791;50.876;4.342;2023-04-24T16:15:53;12.30;99.90
17348;DHT22;8791;50.876;4.342;2023-04-24T16:18:20;12.50;99.90
17348;DHT22;8791;50.876;4.342;2023-04-24T16:20:47;12.60;99.90
17348;DHT22;8791;50.876;4.342;2023-04-24T16:23:14;12.70;99.90
17348;DHT22;8791;50.876;4.342;2023-04-24T16:25:41;12.70;99.90